Aérodrome :
LOGIN :

S'inscrire | Disclaimer

   EN    FR    IT 

 










Légende :    VFR   VFR Marginal   IFR   IFR Intensif   IFR Très Intensif
Visi : 
Plafond : 
>= 8 km
>= 3000ft
5 à 8 km
1000 à 3000 ft
1500m à 5 km
500 à 1000 ft
800 à 1500m
200 à 500 ft
< 800m
< 200 ft
Symboles :   Orages  Brouillard  Fortes neiges  Fortes précipitations  Vent > 20 kt
SIGMETs :   Divers  Orages  Givrage  Turbulence  Onde Orograph.  Cendres Volcan.






- Altitude de l'aérodrome : 184 ft
- Code IATA : BRU


EBBR - Bruxelles

DERNIER METAR :
  • 021650Z 24005KT 200V280 CAVOK 23/11 Q1019 NOSIG

METARs EXPIRÉS :
  • 021620Z 21004KT 160V270 CAVOK 23/11 Q1019 NOSIG
  • 021550Z 19005KT CAVOK 22/10 Q1019 NOSIG
  • 021520Z 21006KT 170V230 CAVOK 22/10 Q1019 NOSIG
  • 021450Z 21008KT 180V240 CAVOK 23/10 Q1020 NOSIG
  • 020250Z 18005KT CAVOK 12/09 Q1022 NOSIG
  • 021420Z 22006KT CAVOK 23/11 Q1020 NOSIG

TAF TAF EBBR
Valide du 02 à 12h jusqu'au 03 à 18h UTC


021100Z 0212/0318 22007KT CAVOK



MET'MAP, la Météo Aéronautique d'un coup d'oeil ! - Copyright ORBIFLY Décembre 2007 - Disclaimer

ORBIFLY MET'MAP TEAM :

Programmation & Développement : Alexandra Zaïnal
Sur une idée originale de : Baudouin d'Aumeries
Soutien technique & logistique : Manuel Goepfert
Assistance : Marc-Olivier Méhu




SOURCES & CREDITS :

   NOAA